createdAt,value
2022-11-01T00:00:27.435Z,17.01
2022-11-01T00:02:56.857Z,17.74
2022-11-01T00:05:23.377Z,17.63
2022-11-01T00:07:53.033Z,16.65
2022-11-01T00:10:19.629Z,16.86
2022-11-01T00:12:47.046Z,16.52
2022-11-01T00:15:13.594Z,16.84
2022-11-01T00:17:40.170Z,16.55
2022-11-01T00:20:06.967Z,17.28
2022-11-01T00:22:33.530Z,16.30
2022-11-01T00:25:00.096Z,17.56
2022-11-01T00:27:26.664Z,17.02
2022-11-01T00:29:53.257Z,17.41
2022-11-01T00:32:19.795Z,16.44
2022-11-01T00:34:46.346Z,16.90
2022-11-01T00:37:12.948Z,17.59
2022-11-01T00:39:39.498Z,17.62
2022-11-01T00:42:06.157Z,17.75
2022-11-01T00:44:32.782Z,17.42
2022-11-01T00:46:59.369Z,17.73
2022-11-01T00:49:25.965Z,17.83
2022-11-01T00:51:52.477Z,16.60
2022-11-01T00:54:19.021Z,17.47
2022-11-01T00:56:45.579Z,17.56
2022-11-01T00:59:12.201Z,17.72
2022-11-01T01:01:38.969Z,17.94
2022-11-01T01:04:05.627Z,17.01
2022-11-01T01:06:32.177Z,17.30
2022-11-01T01:09:00.623Z,17.82
2022-11-01T01:11:27.939Z,17.16
2022-11-01T01:13:54.501Z,17.49
2022-11-01T01:16:21.072Z,17.41
2022-11-01T01:18:47.652Z,17.58
2022-11-01T01:21:15.432Z,18.06
2022-11-01T01:23:43.410Z,17.87
2022-11-01T01:26:11.284Z,17.95
2022-11-01T01:28:41.904Z,17.30
2022-11-01T01:31:13.987Z,17.64
2022-11-01T01:33:41.064Z,17.50
2022-11-01T01:36:07.976Z,17.17
2022-11-01T01:38:34.683Z,17.76
2022-11-01T01:41:21.326Z,17.40
2022-11-01T01:43:47.835Z,17.69
2022-11-01T01:46:14.473Z,16.84
2022-11-01T01:48:44.690Z,17.71
2022-11-01T01:51:18.053Z,17.79
2022-11-01T01:53:47.697Z,17.80
2022-11-01T01:56:22.936Z,18.10
2022-11-01T01:58:58.927Z,18.23
2022-11-01T02:01:26.546Z,18.27
2022-11-01T02:03:53.250Z,18.22
2022-11-01T02:06:25.607Z,18.40
2022-11-01T02:08:58.037Z,18.48
2022-11-01T02:11:24.567Z,18.18
2022-11-01T02:13:51.515Z,18.19
2022-11-01T02:16:36.306Z,17.91
2022-11-01T02:19:26.855Z,17.61
2022-11-01T02:22:05.301Z,17.78
2022-11-01T02:25:29.194Z,18.03
2022-11-01T02:28:10.536Z,18.22
2022-11-01T02:30:45.052Z,18.10
2022-11-01T02:33:17.367Z,18.39
2022-11-01T02:36:30.074Z,17.65
2022-11-01T02:39:16.293Z,17.85
2022-11-01T02:41:51.259Z,17.85
2022-11-01T02:44:25.689Z,17.90
2022-11-01T02:47:02.966Z,18.02
2022-11-01T02:49:37.741Z,17.52
2022-11-01T02:52:07.196Z,18.05
2022-11-01T02:54:44.199Z,18.03
2022-11-01T02:57:17.007Z,17.81
2022-11-01T02:59:46.803Z,17.55
2022-11-01T03:02:44.234Z,17.68
2022-11-01T03:05:23.706Z,17.91
2022-11-01T03:07:55.521Z,17.46
2022-11-01T03:10:28.346Z,17.54
2022-11-01T03:13:10.866Z,17.60
2022-11-01T03:15:46.276Z,18.28
2022-11-01T03:18:25.230Z,18.54
2022-11-01T03:21:01.615Z,18.45
2022-11-01T03:23:57.162Z,18.27
2022-11-01T03:26:27.555Z,17.95
2022-11-01T03:28:59.559Z,17.87
2022-11-01T03:31:31.276Z,18.33
2022-11-01T03:34:01.839Z,18.08
2022-11-01T03:36:35.319Z,18.27
2022-11-01T03:39:26.214Z,17.62
2022-11-01T03:41:59.812Z,17.76
2022-11-01T03:44:30.689Z,18.03
2022-11-01T03:46:57.377Z,17.80
2022-11-01T03:49:23.932Z,17.44
2022-11-01T03:51:50.493Z,18.12
2022-11-01T03:54:17.060Z,18.09
2022-11-01T03:56:43.666Z,18.57
2022-11-01T03:59:11.060Z,18.00
2022-11-01T04:01:37.830Z,17.86
2022-11-01T04:04:04.622Z,17.50
2022-11-01T04:06:31.226Z,18.06
2022-11-01T04:08:57.885Z,17.95
2022-11-01T04:11:24.408Z,17.92
2022-11-01T04:13:51.107Z,18.47
2022-11-01T04:16:36.333Z,18.55
2022-11-01T04:19:21.751Z,18.67
2022-11-01T04:21:48.461Z,17.96
2022-11-01T04:24:21.071Z,18.07
2022-11-01T04:26:48.022Z,18.37
2022-11-01T04:29:14.685Z,18.42
2022-11-01T04:31:41.267Z,18.02
2022-11-01T04:34:07.867Z,18.44
2022-11-01T04:36:34.425Z,18.72
2022-11-01T04:39:00.979Z,18.38
2022-11-01T04:41:29.206Z,18.66
2022-11-01T04:43:59.583Z,18.31
2022-11-01T04:46:29.388Z,18.37
2022-11-01T04:48:55.944Z,18.42
2022-11-01T04:51:22.516Z,18.07
2022-11-01T04:53:49.093Z,18.33
2022-11-01T04:56:15.681Z,18.46
2022-11-01T04:58:45.140Z,18.20
2022-11-01T05:01:14.473Z,18.51
2022-11-01T05:03:41.721Z,18.22
2022-11-01T05:06:08.390Z,18.19
2022-11-01T05:08:34.926Z,18.15
2022-11-01T05:11:01.953Z,18.50
2022-11-01T05:13:28.572Z,18.37
2022-11-01T05:16:17.900Z,18.35
2022-11-01T05:18:44.870Z,18.42
2022-11-01T05:21:11.981Z,18.57
2022-11-01T05:23:38.566Z,18.50
2022-11-01T05:26:05.413Z,18.21
2022-11-01T05:28:32.108Z,17.83
2022-11-01T05:30:58.981Z,18.35
2022-11-01T05:33:25.871Z,18.25
2022-11-01T05:35:52.496Z,17.72
2022-11-01T05:38:19.048Z,18.06
2022-11-01T05:40:45.606Z,18.33
2022-11-01T05:43:12.199Z,18.39
2022-11-01T05:45:38.786Z,18.59
2022-11-01T05:48:05.980Z,18.04
2022-11-01T05:50:32.637Z,18.68
2022-11-01T05:53:10.317Z,18.60
2022-11-01T05:55:37.744Z,18.30
2022-11-01T05:58:04.433Z,18.14
2022-11-01T06:00:31.553Z,18.23
2022-11-01T06:02:59.244Z,18.14
2022-11-01T06:05:27.330Z,18.32
2022-11-01T06:07:53.892Z,18.31
2022-11-01T06:10:20.475Z,18.18
2022-11-01T06:12:47.086Z,18.15
2022-11-01T06:15:13.739Z,18.14
2022-11-01T06:17:40.273Z,18.18
2022-11-01T06:20:07.343Z,18.26
2022-11-01T06:22:36.189Z,18.42
2022-11-01T06:25:02.854Z,18.31
2022-11-01T06:27:29.566Z,18.25
2022-11-01T06:29:56.147Z,18.41
2022-11-01T06:32:22.772Z,18.00
2022-11-01T06:34:49.368Z,17.94
2022-11-01T06:37:15.905Z,17.91
2022-11-01T06:39:42.770Z,18.12
2022-11-01T06:42:10.117Z,18.20
2022-11-01T06:44:36.716Z,18.11
2022-11-01T06:47:03.439Z,18.12
2022-11-01T06:49:30.527Z,18.11
2022-11-01T06:51:57.215Z,17.83
2022-11-01T06:54:23.861Z,17.80
2022-11-01T06:56:50.462Z,18.21
2022-11-01T06:59:17.061Z,18.13
2022-11-01T07:01:44.423Z,17.96
2022-11-01T07:06:42.752Z,18.03
2022-11-01T07:09:10.321Z,17.65
2022-11-01T07:11:36.934Z,17.77
2022-11-01T07:14:04.150Z,17.88
2022-11-01T07:16:31.444Z,17.84
2022-11-01T07:18:58.051Z,17.81
2022-11-01T07:21:25.016Z,17.82
2022-11-01T07:23:53.699Z,18.08
2022-11-01T07:26:20.924Z,18.08
2022-11-01T07:28:47.709Z,18.33
2022-11-01T07:31:14.465Z,18.46
2022-11-01T07:33:41.031Z,18.42
2022-11-01T07:36:08.200Z,17.93
2022-11-01T07:38:34.767Z,18.55
2022-11-01T07:41:03.639Z,18.18
2022-11-01T07:43:30.197Z,18.85
2022-11-01T07:46:00.114Z,18.51
2022-11-01T07:48:26.720Z,18.69
2022-11-01T07:50:56.344Z,18.84
2022-11-01T07:53:22.920Z,18.86
2022-11-01T07:55:49.746Z,19.11
2022-11-01T07:58:16.682Z,19.58
2022-11-01T08:00:44.491Z,19.37
2022-11-01T08:03:14.446Z,18.54
2022-11-01T08:05:41.682Z,18.92
2022-11-01T08:08:09.220Z,19.29
2022-11-01T08:10:37.015Z,19.07
2022-11-01T08:13:24.288Z,19.07
2022-11-01T08:15:52.675Z,18.79
2022-11-01T08:18:24.364Z,18.98
2022-11-01T08:20:51.274Z,19.11
2022-11-01T08:23:18.206Z,18.54
2022-11-01T08:25:45.634Z,19.23
2022-11-01T08:28:15.688Z,19.41
2022-11-01T08:30:43.708Z,19.21
2022-11-01T08:33:10.649Z,19.42
2022-11-01T08:35:37.605Z,19.51
2022-11-01T08:38:04.926Z,19.51
2022-11-01T08:40:33.199Z,19.51
2022-11-01T08:42:59.944Z,19.61
2022-11-01T08:45:27.160Z,19.30
2022-11-01T08:48:01.696Z,19.95
2022-11-01T08:50:29.188Z,19.61
2022-11-01T08:52:55.802Z,19.88
2022-11-01T08:55:23.141Z,19.64
2022-11-01T08:57:49.995Z,19.91
2022-11-01T09:00:17.211Z,19.85
2022-11-01T09:02:43.751Z,19.66
2022-11-01T09:05:10.395Z,19.82
2022-11-01T09:07:37.946Z,20.24
2022-11-01T09:10:05.234Z,20.09
2022-11-01T09:12:32.104Z,20.55
2022-11-01T09:14:58.834Z,20.69
2022-11-01T09:17:25.439Z,20.65
2022-11-01T09:19:52.065Z,21.07
2022-11-01T09:22:18.723Z,20.75
2022-11-01T09:24:45.532Z,20.24
2022-11-01T09:27:12.388Z,20.95
2022-11-01T09:29:38.965Z,21.13
2022-11-01T09:32:06.729Z,21.32
2022-11-01T09:34:33.854Z,21.42
2022-11-01T09:37:00.500Z,21.31
2022-11-01T09:39:27.550Z,21.24
2022-11-01T09:42:02.952Z,21.11
2022-11-01T09:44:37.656Z,21.46
2022-11-01T09:47:08.303Z,21.45
2022-11-01T09:49:40.716Z,21.50
2022-11-01T09:52:09.510Z,21.72
2022-11-01T09:54:37.271Z,21.10
2022-11-01T09:57:18.029Z,21.27
2022-11-01T10:00:06.369Z,21.52
2022-11-01T10:02:41.972Z,21.52
2022-11-01T10:05:13.183Z,20.97
2022-11-01T10:08:10.769Z,20.74
2022-11-01T10:10:49.213Z,21.10
2022-11-01T10:13:49.688Z,21.00
2022-11-01T10:16:22.279Z,21.18
2022-11-01T10:19:21.895Z,21.57
2022-11-01T10:21:51.067Z,21.52
2022-11-01T10:24:32.053Z,21.30
2022-11-01T10:27:37.189Z,21.44
2022-11-01T10:30:22.172Z,21.32
2022-11-01T10:33:19.781Z,21.29
2022-11-01T10:35:53.046Z,21.42
2022-11-01T10:41:31.131Z,21.15
2022-11-01T10:44:02.932Z,21.14
2022-11-01T10:46:34.068Z,20.94
2022-11-01T10:49:05.575Z,20.99
2022-11-01T10:51:34.947Z,21.28
2022-11-01T10:54:05.769Z,21.51
2022-11-01T10:56:41.654Z,22.37
2022-11-01T10:59:36.206Z,22.32
2022-11-01T11:02:14.348Z,22.61
2022-11-01T11:04:41.106Z,22.40
2022-11-01T11:07:13.528Z,21.76
2022-11-01T11:09:40.494Z,22.45
2022-11-01T11:12:14.717Z,22.03
2022-11-01T11:14:42.615Z,21.73
2022-11-01T11:17:22.660Z,22.01
2022-11-01T11:19:52.474Z,21.38
2022-11-01T11:22:21.467Z,22.30
2022-11-01T11:24:48.887Z,22.07
2022-11-01T11:27:25.357Z,22.40
2022-11-01T11:29:54.498Z,22.10
2022-11-01T11:32:26.936Z,21.43
2022-11-01T11:34:58.991Z,21.64
2022-11-01T11:37:30.158Z,21.79
2022-11-01T11:40:02.781Z,21.85
2022-11-01T11:42:30.460Z,22.10
2022-11-01T11:45:17.341Z,22.23
2022-11-01T11:47:44.620Z,21.09
2022-11-01T11:50:20.525Z,21.57
2022-11-01T11:52:56.578Z,21.83
2022-11-01T11:55:36.581Z,21.78
2022-11-01T11:58:05.909Z,21.54
2022-11-01T12:00:37.925Z,21.53
2022-11-01T12:03:08.111Z,21.33
2022-11-01T12:05:35.034Z,21.58
2022-11-01T12:08:01.682Z,21.57
2022-11-01T12:10:40.354Z,21.70
2022-11-01T12:13:31.960Z,21.50
2022-11-01T12:16:24.370Z,21.16
2022-11-01T12:19:02.411Z,21.07
2022-11-01T12:21:34.295Z,20.45
2022-11-01T12:24:39.651Z,20.48
2022-11-01T12:27:14.342Z,20.72
2022-11-01T12:29:53.807Z,21.27
2022-11-01T12:32:26.069Z,21.56
2022-11-01T12:34:55.958Z,21.59
2022-11-01T12:37:51.445Z,20.96
2022-11-01T12:40:26.870Z,20.97
2022-11-01T12:43:03.682Z,21.22
2022-11-01T12:45:39.803Z,21.69
2022-11-01T12:48:09.841Z,20.91
2022-11-01T12:50:48.953Z,20.74
2022-11-01T12:53:20.400Z,20.79
2022-11-01T12:55:47.178Z,21.24
2022-11-01T12:58:21.843Z,20.72
2022-11-01T13:01:13.661Z,20.98
2022-11-01T13:04:05.924Z,21.19
2022-11-01T13:06:54.431Z,21.17
2022-11-01T13:09:53.183Z,21.38
2022-11-01T13:12:40.035Z,21.09
2022-11-01T13:15:25.570Z,20.87
2022-11-01T13:17:59.481Z,21.10
2022-11-01T13:20:35.581Z,20.83
2022-11-01T13:23:25.381Z,21.16
2022-11-01T13:26:17.699Z,21.04
2022-11-01T13:29:07.446Z,20.91
2022-11-01T13:32:02.429Z,20.94
2022-11-01T13:34:59.730Z,20.51
2022-11-01T13:37:43.307Z,20.84
2022-11-01T13:40:31.712Z,20.50
2022-11-01T13:43:08.098Z,20.68
2022-11-01T13:45:45.198Z,20.65
2022-11-01T13:48:27.140Z,21.09
2022-11-01T13:51:17.876Z,21.17
2022-11-01T13:53:49.523Z,20.96
2022-11-01T13:56:29.174Z,21.30
2022-11-01T13:58:56.289Z,21.59
2022-11-01T14:01:30.543Z,21.42
2022-11-01T14:04:12.282Z,21.55
2022-11-01T14:06:41.840Z,21.12
2022-11-01T14:09:20.510Z,21.52
2022-11-01T14:11:55.078Z,21.44
2022-11-01T14:14:30.897Z,21.42
2022-11-01T14:17:16.213Z,20.84
2022-11-01T14:19:43.659Z,20.95
2022-11-01T14:22:22.074Z,21.10
2022-11-01T14:25:00.835Z,20.71
2022-11-01T14:27:35.081Z,21.14
2022-11-01T14:30:02.889Z,20.59
2022-11-01T14:32:31.621Z,21.03
2022-11-01T14:35:23.783Z,21.16
2022-11-01T14:37:53.563Z,20.84
2022-11-01T14:40:22.918Z,20.45
2022-11-01T14:42:52.135Z,20.58
2022-11-01T14:45:29.074Z,20.41
2022-11-01T14:48:04.748Z,20.44
2022-11-01T14:50:47.857Z,20.54
2022-11-01T14:53:31.461Z,20.86
2022-11-01T14:56:15.207Z,20.20
2022-11-01T14:58:42.525Z,20.64
2022-11-01T15:01:23.357Z,20.41
2022-11-01T15:03:58.738Z,20.59
2022-11-01T15:06:28.577Z,20.40
2022-11-01T15:08:59.758Z,20.56
2022-11-01T15:11:34.856Z,20.40
2022-11-01T15:14:04.847Z,20.58
2022-11-01T15:16:35.409Z,20.45
2022-11-01T15:19:32.461Z,20.38
2022-11-01T15:22:03.215Z,20.20
2022-11-01T15:24:33.490Z,20.50
2022-11-01T15:27:11.949Z,20.10
2022-11-01T15:29:38.554Z,20.15
2022-11-01T15:32:05.615Z,20.24
2022-11-01T15:34:36.707Z,20.16
2022-11-01T15:37:22.108Z,19.97
2022-11-01T15:39:49.530Z,20.24
2022-11-01T15:42:20.441Z,19.95
2022-11-01T15:44:46.999Z,19.57
2022-11-01T15:47:18.298Z,19.91
2022-11-01T15:49:55.497Z,19.77
2022-11-01T15:52:25.760Z,19.97
2022-11-01T15:55:09.041Z,19.39
2022-11-01T15:57:41.933Z,19.57
2022-11-01T16:00:18.110Z,19.62
2022-11-01T16:02:47.341Z,19.65
2022-11-01T16:05:18.771Z,19.38
2022-11-01T16:07:45.632Z,19.46
2022-11-01T16:10:30.202Z,19.14
2022-11-01T16:12:59.646Z,19.09
2022-11-01T16:15:29.974Z,19.22
2022-11-01T16:18:00.046Z,19.10
2022-11-01T16:20:29.390Z,18.88
2022-11-01T16:22:58.675Z,18.97
2022-11-01T16:25:28.078Z,18.97
2022-11-01T16:28:11.325Z,19.03
2022-11-01T16:30:46.798Z,18.72
2022-11-01T16:33:35.673Z,18.75
2022-11-01T16:36:21.350Z,18.67
2022-11-01T16:38:51.959Z,18.66
2022-11-01T16:41:24.190Z,18.76
2022-11-01T16:43:59.129Z,18.86
2022-11-01T16:46:27.530Z,19.21
2022-11-01T16:49:05.562Z,18.73
2022-11-01T16:51:32.501Z,18.42
2022-11-01T16:54:00.548Z,18.35
2022-11-01T16:56:48.089Z,18.29
2022-11-01T16:59:23.632Z,18.78
2022-11-01T17:01:52.243Z,18.20
2022-11-01T17:04:19.346Z,17.89
2022-11-01T17:06:45.925Z,17.91
2022-11-01T17:09:15.023Z,17.91
2022-11-01T17:11:47.887Z,17.79
2022-11-01T17:14:18.320Z,17.81
2022-11-01T17:16:47.233Z,17.60
2022-11-01T17:19:31.179Z,17.51
2022-11-01T17:22:00.413Z,17.53
2022-11-01T17:24:27.471Z,17.37
2022-11-01T17:26:57.842Z,17.23
2022-11-01T17:29:24.541Z,17.34
2022-11-01T17:31:51.112Z,17.19
2022-11-01T17:34:17.734Z,17.05
2022-11-01T17:36:48.535Z,17.46
2022-11-01T17:39:15.485Z,16.94
2022-11-01T17:41:42.026Z,16.98
2022-11-01T17:44:11.406Z,16.98
2022-11-01T17:46:38.102Z,17.14
2022-11-01T17:49:05.480Z,16.90
2022-11-01T17:51:32.558Z,17.37
2022-11-01T17:53:59.203Z,17.19
2022-11-01T17:56:25.784Z,17.16
2022-11-01T17:58:53.712Z,17.16
2022-11-01T18:01:21.441Z,17.28
2022-11-01T18:03:49.044Z,16.84
2022-11-01T18:06:16.333Z,17.16
2022-11-01T18:08:46.258Z,17.11
2022-11-01T18:11:34.756Z,17.35
2022-11-01T18:14:19.758Z,16.93
2022-11-01T18:16:50.171Z,17.21
2022-11-01T18:19:25.806Z,18.88
2022-11-01T18:22:09.621Z,16.79
2022-11-01T18:24:48.580Z,16.79
2022-11-01T18:27:22.641Z,16.45
2022-11-01T18:29:53.402Z,16.71
2022-11-01T18:32:42.086Z,16.72
2022-11-01T18:35:30.680Z,16.70
2022-11-01T18:38:33.446Z,16.55
2022-11-01T18:41:05.439Z,16.52
2022-11-01T18:43:37.906Z,16.38
2022-11-01T18:46:24.978Z,16.19
2022-11-01T18:49:00.472Z,16.16
2022-11-01T18:51:33.930Z,16.75
2022-11-01T18:54:26.773Z,16.66
2022-11-01T18:56:58.067Z,16.55
2022-11-01T18:59:34.888Z,16.48
2022-11-01T19:02:18.121Z,16.78
2022-11-01T19:04:46.685Z,16.96
2022-11-01T19:07:20.076Z,17.02
2022-11-01T19:09:54.813Z,17.23
2022-11-01T19:12:29.757Z,16.85
2022-11-01T19:15:04.881Z,16.49
2022-11-01T19:17:37.348Z,17.11
2022-11-01T19:20:25.242Z,16.93
2022-11-01T19:22:54.666Z,16.76
2022-11-01T19:25:24.277Z,16.60
2022-11-01T19:27:55.443Z,16.79
2022-11-01T19:30:26.608Z,17.01
2022-11-01T19:32:56.191Z,16.82
2022-11-01T19:35:23.462Z,16.49
2022-11-01T19:37:53.644Z,16.87
2022-11-01T19:40:34.920Z,17.00
2022-11-01T19:43:12.328Z,16.64
2022-11-01T19:45:46.866Z,16.52
2022-11-01T19:48:16.600Z,16.63
2022-11-01T19:50:45.000Z,16.65
2022-11-01T19:53:26.207Z,16.64
2022-11-01T19:56:00.211Z,16.48
2022-11-01T19:58:43.596Z,16.40
2022-11-01T20:01:25.570Z,16.26
2022-11-01T20:03:56.643Z,16.22
2022-11-01T20:06:35.956Z,16.08
2022-11-01T20:09:13.245Z,16.17
2022-11-01T20:11:39.857Z,16.16
2022-11-01T20:14:06.447Z,16.37
2022-11-01T20:16:33.237Z,16.07
2022-11-01T20:18:59.792Z,15.95
2022-11-01T20:21:26.831Z,15.89
2022-11-01T20:23:53.342Z,15.45
2022-11-01T20:26:19.875Z,14.90
2022-11-01T20:28:46.538Z,15.68
2022-11-01T20:31:13.216Z,15.72
2022-11-01T20:33:39.860Z,16.19
2022-11-01T20:36:10.987Z,16.29
2022-11-01T20:38:38.727Z,16.38
2022-11-01T20:41:05.668Z,15.93
2022-11-01T20:43:32.356Z,15.54
2022-11-01T20:45:58.980Z,15.01
2022-11-01T20:48:25.872Z,14.61
2022-11-01T20:50:53.599Z,14.66
2022-11-01T20:53:20.259Z,15.16
2022-11-01T20:55:46.815Z,15.51
2022-11-01T20:58:14.167Z,15.72
2022-11-01T21:00:40.854Z,15.79
2022-11-01T21:03:19.426Z,14.79
2022-11-01T21:05:47.985Z,14.78
2022-11-01T21:08:25.228Z,14.90
2022-11-01T21:11:01.628Z,14.67
2022-11-01T21:13:34.141Z,14.32
2022-11-01T21:16:02.296Z,14.45
2022-11-01T21:18:36.413Z,14.42
2022-11-01T21:21:15.287Z,15.57
2022-11-01T21:23:44.387Z,15.35
2022-11-01T21:26:17.414Z,15.44
2022-11-01T21:28:47.932Z,15.42
2022-11-01T21:31:14.439Z,15.67
2022-11-01T21:33:51.451Z,15.34
2022-11-01T21:36:20.788Z,15.67
2022-11-01T21:39:00.866Z,15.70
2022-11-01T21:41:33.155Z,15.99
2022-11-01T21:44:14.349Z,16.49
2022-11-01T21:46:41.004Z,16.30
2022-11-01T21:49:43.398Z,16.59
2022-11-01T21:54:43.225Z,16.33
2022-11-01T21:57:11.064Z,16.50
2022-11-01T21:59:37.711Z,16.46
2022-11-01T22:02:05.953Z,16.76
2022-11-01T22:04:33.096Z,16.60
2022-11-01T22:07:01.857Z,16.73
2022-11-01T22:09:29.066Z,16.63
2022-11-01T22:11:56.078Z,16.85
2022-11-01T22:14:22.841Z,16.54
2022-11-01T22:16:49.471Z,16.82
2022-11-01T22:19:16.354Z,16.83
2022-11-01T22:21:42.968Z,16.57
2022-11-01T22:24:12.595Z,16.49
2022-11-01T22:26:39.150Z,16.57
2022-11-01T22:29:05.988Z,16.25
2022-11-01T22:31:32.539Z,16.53
2022-11-01T22:33:59.122Z,16.20
2022-11-01T22:36:30.601Z,16.03
2022-11-01T22:42:56.236Z,16.35
2022-11-01T22:45:22.879Z,16.58
2022-11-01T22:47:49.501Z,16.68
2022-11-01T22:50:26.631Z,16.29
2022-11-01T22:52:53.212Z,16.23
2022-11-01T22:55:27.128Z,16.45
2022-11-01T22:58:17.572Z,16.36
2022-11-01T23:00:46.152Z,16.21
2022-11-01T23:03:25.775Z,15.97
2022-11-01T23:05:54.574Z,16.07
2022-11-01T23:08:32.429Z,16.26
2022-11-01T23:11:00.134Z,16.28
2022-11-01T23:13:50.578Z,16.36
2022-11-01T23:16:28.973Z,16.23
2022-11-01T23:18:59.335Z,16.12
2022-11-01T23:21:27.467Z,16.16
2022-11-01T23:23:54.447Z,15.80
2022-11-01T23:26:23.130Z,16.13
2022-11-01T23:28:54.632Z,16.04
2022-11-01T23:31:23.480Z,16.40
2022-11-01T23:33:50.667Z,16.31
2022-11-01T23:36:29.167Z,16.03
2022-11-01T23:39:02.203Z,15.76
2022-11-01T23:41:50.721Z,16.07
2022-11-01T23:44:36.904Z,16.30
2022-11-01T23:47:15.314Z,16.65
2022-11-01T23:49:43.760Z,16.31
2022-11-01T23:52:28.731Z,16.10
2022-11-01T23:54:55.424Z,16.24
2022-11-01T23:57:22.018Z,16.39
2022-11-01T23:59:50.910Z,15.80
